createdAt,value
2019-05-13T00:00:34.257Z,93.90
2019-05-13T00:04:37.588Z,94.00
2019-05-13T00:08:43.845Z,93.90
2019-05-13T00:12:46.469Z,93.80
2019-05-13T00:16:50.171Z,94.00
2019-05-13T00:20:54.315Z,94.10
2019-05-13T00:24:57.882Z,94.40
2019-05-13T00:29:04.036Z,94.50
2019-05-13T00:33:06.767Z,94.50
2019-05-13T00:37:11.726Z,94.80
2019-05-13T00:41:15.631Z,94.80
2019-05-13T00:45:19.066Z,94.50
2019-05-13T00:49:23.853Z,94.70
2019-05-13T00:53:27.508Z,94.40
2019-05-13T00:57:30.942Z,95.00
2019-05-13T01:01:34.398Z,95.00
2019-05-13T01:05:37.839Z,95.00
2019-05-13T01:09:41.294Z,95.10
2019-05-13T01:13:44.746Z,95.10
2019-05-13T01:17:48.200Z,95.20
2019-05-13T01:21:53.829Z,95.60
2019-05-13T01:25:56.033Z,95.70
2019-05-13T01:29:59.487Z,95.60
2019-05-13T01:34:04.684Z,95.60
2019-05-13T01:38:08.370Z,95.60
2019-05-13T01:42:13.784Z,95.70
2019-05-13T01:46:16.990Z,95.60
2019-05-13T01:50:20.446Z,95.70
2019-05-13T01:54:24.646Z,95.70
2019-05-13T01:58:28.218Z,95.70
2019-05-13T02:02:33.677Z,96.00
2019-05-13T02:06:37.239Z,95.80
2019-05-13T02:10:53.988Z,95.60
2019-05-13T02:14:56.583Z,95.60
2019-05-13T02:19:00.019Z,96.00
2019-05-13T02:23:04.870Z,95.70
2019-05-13T02:27:08.307Z,95.80
2019-05-13T02:31:13.804Z,96.10
2019-05-13T02:35:16.930Z,96.10
2019-05-13T02:39:22.293Z,96.30
2019-05-13T02:43:25.967Z,96.10
2019-05-13T02:47:32.847Z,96.10
2019-05-13T02:51:34.828Z,96.10
2019-05-13T02:55:38.286Z,96.10
2019-05-13T02:59:42.362Z,96.20
2019-05-13T03:03:46.053Z,96.40
2019-05-13T03:07:52.978Z,96.20
2019-05-13T03:11:55.163Z,96.10
2019-05-13T03:16:08.944Z,96.20
2019-05-13T03:20:16.553Z,96.10
2019-05-13T03:24:17.616Z,96.10
2019-05-13T03:28:22.378Z,96.10
2019-05-13T03:32:35.088Z,95.90
2019-05-13T03:36:36.247Z,96.30
2019-05-13T03:40:42.211Z,96.60
2019-05-13T03:44:45.194Z,96.70
2019-05-13T03:48:52.939Z,96.40
2019-05-13T03:52:56.526Z,96.60
2019-05-13T03:57:03.177Z,96.60
2019-05-13T04:01:05.216Z,96.50
2019-05-13T04:05:08.801Z,96.40
2019-05-13T04:09:22.491Z,96.60
2019-05-13T04:13:17.800Z,96.60
2019-05-13T04:17:24.297Z,96.70
2019-05-13T04:21:26.518Z,96.70
2019-05-13T04:25:32.260Z,96.40
2019-05-13T04:29:36.047Z,96.30
2019-05-13T04:33:42.411Z,96.50
2019-05-13T04:37:44.805Z,96.30
2019-05-13T04:41:48.300Z,95.90
2019-05-13T04:45:52.597Z,95.70
2019-05-13T04:49:56.195Z,95.80
2019-05-13T04:54:02.883Z,95.70
2019-05-13T04:58:05.532Z,95.70
2019-05-13T05:02:53.754Z,95.60
2019-05-13T05:07:22.219Z,95.40
2019-05-13T05:11:52.900Z,95.00
2019-05-13T05:16:22.071Z,95.10
2019-05-13T05:20:32.251Z,94.50
2019-05-13T05:24:41.821Z,94.50
2019-05-13T05:28:48.346Z,94.40
2019-05-13T05:33:26.307Z,94.00
2019-05-13T05:38:04.417Z,94.00
2019-05-13T05:42:11.223Z,93.60
2019-05-13T05:46:16.578Z,93.10
2019-05-13T05:50:22.815Z,93.80
2019-05-13T05:54:27.454Z,92.80
2019-05-13T05:58:31.799Z,92.80
2019-05-13T06:02:37.117Z,92.90
2019-05-13T06:06:41.570Z,93.00
2019-05-13T06:10:50.172Z,92.10
2019-05-13T06:14:52.455Z,92.30
2019-05-13T06:18:55.842Z,91.40
2019-05-13T06:22:59.282Z,91.60
2019-05-13T06:27:02.730Z,91.00
2019-05-13T06:31:06.423Z,90.70
2019-05-13T06:35:11.496Z,91.20
2019-05-13T06:39:15.342Z,90.40
2019-05-13T06:43:21.098Z,89.80
2019-05-13T06:47:24.707Z,88.70
2019-05-13T06:51:28.177Z,90.50
2019-05-13T06:55:31.734Z,90.00
2019-05-13T06:59:35.531Z,85.90
2019-05-13T07:03:41.808Z,86.40
2019-05-13T07:07:44.123Z,87.30
2019-05-13T07:11:47.669Z,85.90
2019-05-13T07:15:52.173Z,85.10
2019-05-13T07:19:55.842Z,85.10
2019-05-13T07:24:01.971Z,84.10
2019-05-13T07:28:04.599Z,82.30
2019-05-13T07:32:08.058Z,83.80
2019-05-13T07:36:12.698Z,82.50
2019-05-13T07:40:16.431Z,81.20
2019-05-13T07:44:22.327Z,80.70
2019-05-13T07:48:27.864Z,79.70
2019-05-13T07:52:31.963Z,76.40
2019-05-13T07:56:35.592Z,78.90
2019-05-13T08:00:41.668Z,76.00
2019-05-13T08:04:44.266Z,75.10
2019-05-13T08:08:47.863Z,76.40
2019-05-13T08:12:51.722Z,73.90
2019-05-13T08:16:55.243Z,70.80
2019-05-13T08:20:58.701Z,72.50
2019-05-13T08:25:03.245Z,68.00
2019-05-13T08:29:06.906Z,69.40
2019-05-13T08:33:12.569Z,67.80
2019-05-13T08:37:16.033Z,71.00
2019-05-13T08:41:23.312Z,66.90
2019-05-13T08:45:25.311Z,66.90
2019-05-13T08:49:28.828Z,64.80
2019-05-13T08:53:32.279Z,62.10
2019-05-13T08:57:35.727Z,62.20
2019-05-13T09:01:39.435Z,61.60
2019-05-13T09:05:42.896Z,60.80
2019-05-13T09:09:46.335Z,59.60
2019-05-13T09:13:51.601Z,58.60
2019-05-13T09:17:54.958Z,61.40
2019-05-13T09:21:58.427Z,57.10
2019-05-13T09:26:02.794Z,58.30
2019-05-13T09:30:07.346Z,59.40
2019-05-13T09:34:12.155Z,61.70
2019-05-13T09:38:15.827Z,64.00
2019-05-13T09:42:21.485Z,62.20
2019-05-13T09:46:24.466Z,56.80
2019-05-13T09:50:32.329Z,56.20
2019-05-13T09:54:33.359Z,58.00
2019-05-13T09:58:36.904Z,54.50
2019-05-13T10:02:42.693Z,53.10
2019-05-13T10:06:45.687Z,54.70
2019-05-13T10:10:52.679Z,50.10
2019-05-13T10:14:56.198Z,50.20
2019-05-13T10:19:01.595Z,49.80
2019-05-13T10:23:04.844Z,47.50
2019-05-13T10:27:12.001Z,49.90
2019-05-13T10:31:14.786Z,48.00
2019-05-13T10:35:18.379Z,49.50
2019-05-13T10:39:22.577Z,48.20
2019-05-13T10:43:31.400Z,48.00
2019-05-13T10:47:31.531Z,43.70
2019-05-13T10:51:34.974Z,47.10
2019-05-13T10:55:38.698Z,45.80
2019-05-13T10:59:42.156Z,47.70
2019-05-13T11:03:46.050Z,47.60
2019-05-13T11:07:51.769Z,51.60
2019-05-13T11:11:54.742Z,48.30
2019-05-13T11:15:58.694Z,50.90
2019-05-13T11:20:03.487Z,50.70
2019-05-13T11:24:07.207Z,48.30
2019-05-13T11:28:12.305Z,53.10
2019-05-13T11:32:15.861Z,50.50
2019-05-13T11:36:19.641Z,49.40
2019-05-13T11:40:23.155Z,47.90
2019-05-13T11:44:26.639Z,47.40
2019-05-13T11:48:32.279Z,47.70
2019-05-13T11:52:35.346Z,48.80
2019-05-13T11:56:46.338Z,43.60
2019-05-13T12:00:52.787Z,45.20
2019-05-13T12:04:54.644Z,44.80
2019-05-13T12:08:58.175Z,45.90
2019-05-13T12:13:01.828Z,44.80
2019-05-13T12:17:05.773Z,45.00
2019-05-13T12:21:09.278Z,44.30
2019-05-13T12:25:13.865Z,43.90
2019-05-13T12:29:19.404Z,34.00
2019-05-13T12:33:23.230Z,42.70
2019-05-13T12:37:26.666Z,42.60
2019-05-13T12:41:32.926Z,43.50
2019-05-13T12:45:42.958Z,41.60
2019-05-13T12:49:46.692Z,44.30
2019-05-13T12:53:52.647Z,42.30
2019-05-13T12:58:02.949Z,40.50
2019-05-13T13:02:13.044Z,40.80
2019-05-13T13:06:32.400Z,41.60
2019-05-13T13:10:27.300Z,37.20
2019-05-13T13:14:39.244Z,42.40
2019-05-13T13:18:45.632Z,41.30
2019-05-13T13:22:55.199Z,43.10
2019-05-13T13:31:42.740Z,46.40
2019-05-13T13:35:58.595Z,47.50
2019-05-13T13:39:59.283Z,45.50
2019-05-13T13:44:11.611Z,47.80
2019-05-13T13:48:24.111Z,44.90
2019-05-13T13:52:33.598Z,42.70
2019-05-13T13:56:46.589Z,42.40
2019-05-13T14:01:07.255Z,40.60
2019-05-13T14:05:12.449Z,42.50
2019-05-13T14:09:26.638Z,41.30
2019-05-13T14:13:43.290Z,42.30
2019-05-13T14:17:51.686Z,38.80
2019-05-13T14:21:55.502Z,39.80
2019-05-13T14:26:03.212Z,44.80
2019-05-13T14:30:15.548Z,40.90
2019-05-13T14:34:21.843Z,40.30
2019-05-13T14:38:32.717Z,39.00
2019-05-13T14:47:22.272Z,40.60
2019-05-13T14:51:32.458Z,39.90
2019-05-13T14:55:41.929Z,39.50
2019-05-13T14:59:47.310Z,41.60
2019-05-13T15:04:02.864Z,42.10
2019-05-13T15:08:08.783Z,43.30
2019-05-13T15:12:21.529Z,46.90
2019-05-13T15:16:25.903Z,47.80
2019-05-13T15:20:53.815Z,48.30
2019-05-13T15:25:02.729Z,50.40
2019-05-13T15:29:11.335Z,48.30
2019-05-13T15:33:18.564Z,48.80
2019-05-13T15:37:32.351Z,46.10
2019-05-13T15:41:36.539Z,41.70
2019-05-13T15:45:47.050Z,42.10
2019-05-13T15:50:02.614Z,43.30
2019-05-13T15:54:14.981Z,43.50
2019-05-13T15:58:18.754Z,45.20
2019-05-13T16:06:52.201Z,45.50
2019-05-13T16:11:08.939Z,44.20
2019-05-13T16:15:21.586Z,44.70
2019-05-13T16:19:32.532Z,45.50
2019-05-13T16:28:20.763Z,47.60
2019-05-13T16:32:28.793Z,45.50
2019-05-13T16:46:01.350Z,47.00
2019-05-13T16:50:11.337Z,45.40
2019-05-13T16:54:21.988Z,47.10
2019-05-13T17:03:34.494Z,48.10
2019-05-13T17:12:48.864Z,49.20
2019-05-13T17:17:01.183Z,49.90
2019-05-13T17:21:10.328Z,50.50
2019-05-13T17:25:16.868Z,52.50
2019-05-13T17:29:22.117Z,53.80
2019-05-13T17:33:41.145Z,54.70
2019-05-13T17:37:51.235Z,54.50
2019-05-13T17:41:57.216Z,55.70
2019-05-13T17:46:06.741Z,56.10
2019-05-13T17:50:13.490Z,57.60
2019-05-13T17:54:22.190Z,57.40
2019-05-13T17:58:42.326Z,58.80
2019-05-13T18:02:51.527Z,59.80
2019-05-13T18:07:02.329Z,60.80
2019-05-13T18:11:06.394Z,61.40
2019-05-13T18:15:11.516Z,62.40
2019-05-13T18:19:22.163Z,63.30
2019-05-13T18:23:26.020Z,64.00
2019-05-13T18:27:29.735Z,64.20
2019-05-13T18:31:33.200Z,65.80
2019-05-13T18:35:36.735Z,66.30
2019-05-13T18:39:41.598Z,66.80
2019-05-13T18:43:45.445Z,68.30
2019-05-13T18:47:51.024Z,68.50
2019-05-13T18:51:54.566Z,69.90
2019-05-13T18:55:58.023Z,69.80
2019-05-13T19:00:02.253Z,70.70
2019-05-13T19:04:05.903Z,71.60
2019-05-13T19:08:09.430Z,71.50
2019-05-13T19:12:12.899Z,71.90
2019-05-13T19:16:16.628Z,72.80
2019-05-13T19:20:21.995Z,73.10
2019-05-13T19:24:25.875Z,73.90
2019-05-13T19:28:31.521Z,73.80
2019-05-13T19:32:34.510Z,73.50
2019-05-13T19:36:38.298Z,74.50
2019-05-13T19:40:42.137Z,74.50
2019-05-13T19:44:45.702Z,74.90
2019-05-13T19:48:49.435Z,74.90
2019-05-13T19:52:52.948Z,76.60
2019-05-13T19:56:56.399Z,76.10
2019-05-13T20:00:59.851Z,75.70
2019-05-13T20:05:03.983Z,76.50
2019-05-13T20:09:07.791Z,77.10
2019-05-13T20:13:11.510Z,77.80
2019-05-13T20:17:14.948Z,78.30
2019-05-13T20:21:18.419Z,79.20
2019-05-13T20:25:22.127Z,80.60
2019-05-13T20:29:25.600Z,80.50
2019-05-13T20:33:31.630Z,81.40
2019-05-13T20:37:34.698Z,82.60
2019-05-13T20:41:38.247Z,82.60
2019-05-13T20:45:42.233Z,83.10
2019-05-13T20:49:58.173Z,83.60
2019-05-13T20:53:51.850Z,84.30
2019-05-13T20:57:55.647Z,84.50
2019-05-13T21:02:02.113Z,85.10
2019-05-13T21:06:04.824Z,86.30
2019-05-13T21:10:08.878Z,86.80
2019-05-13T21:14:12.396Z,87.50
2019-05-13T21:18:16.574Z,87.80
2019-05-13T21:22:21.273Z,88.40
2019-05-13T21:26:25.194Z,88.40
2019-05-13T21:30:28.902Z,88.70
2019-05-13T21:34:32.351Z,88.70
2019-05-13T21:38:35.786Z,89.60
2019-05-13T21:42:41.625Z,90.00
2019-05-13T21:47:23.792Z,90.00
2019-05-13T21:52:09.825Z,90.10
2019-05-13T21:56:13.334Z,90.20
2019-05-13T22:00:18.661Z,90.20
2019-05-13T22:04:24.124Z,90.40
2019-05-13T22:08:27.349Z,90.50
2019-05-13T22:12:32.023Z,90.50
2019-05-13T22:16:35.899Z,90.60
2019-05-13T22:20:49.507Z,90.70
2019-05-13T22:24:44.498Z,90.60
2019-05-13T22:28:47.942Z,90.70
2019-05-13T22:32:52.307Z,90.70
2019-05-13T22:36:57.751Z,91.10
2019-05-13T22:41:01.424Z,91.30
2019-05-13T22:45:05.906Z,91.80
2019-05-13T22:49:11.428Z,91.80
2019-05-13T22:53:14.765Z,92.00
2019-05-13T22:57:18.465Z,91.90
2019-05-13T23:01:22.171Z,92.00
2019-05-13T23:05:25.598Z,92.20
2019-05-13T23:09:29.346Z,92.20
2019-05-13T23:13:32.770Z,92.00
2019-05-13T23:17:36.226Z,92.10
2019-05-13T23:21:41.791Z,92.30
2019-05-13T23:25:45.115Z,92.50
2019-05-13T23:29:48.883Z,92.70
2019-05-13T23:33:52.318Z,92.90
2019-05-13T23:37:56.013Z,93.00
2019-05-13T23:42:01.290Z,93.00
2019-05-13T23:46:04.701Z,93.00
2019-05-13T23:50:08.294Z,93.00
2019-05-13T23:54:12.347Z,93.20
2019-05-13T23:58:15.821Z,93.20
